createdAt,value
2022-11-22T00:00:43.563Z,85.10
2022-11-22T00:03:13.340Z,83.04
2022-11-22T00:05:43.020Z,83.42
2022-11-22T00:08:12.821Z,83.85
2022-11-22T00:10:42.859Z,87.31
2022-11-22T00:13:13.205Z,98.44
2022-11-22T00:15:44.680Z,91.16
2022-11-22T00:18:15.600Z,84.65
2022-11-22T00:20:45.881Z,87.47
2022-11-22T00:23:16.716Z,85.26
2022-11-22T00:25:48.145Z,88.14
2022-11-22T00:28:17.506Z,89.23
2022-11-22T00:30:49.064Z,86.89
2022-11-22T00:33:18.725Z,84.67
2022-11-22T00:35:48.845Z,83.82
2022-11-22T00:38:18.904Z,82.80
2022-11-22T00:40:48.720Z,82.53
2022-11-22T00:43:18.869Z,83.77
2022-11-22T00:45:50.902Z,84.27
2022-11-22T00:48:20.763Z,80.68
2022-11-22T00:50:51.350Z,84.24
2022-11-22T00:53:21.256Z,83.09
2022-11-22T00:55:50.746Z,86.84
2022-11-22T00:58:19.982Z,85.59
2022-11-22T01:00:56.273Z,85.08
2022-11-22T01:03:26.770Z,88.21
2022-11-22T01:05:56.358Z,85.66
2022-11-22T01:08:25.900Z,85.92
2022-11-22T01:10:59.855Z,89.07
2022-11-22T01:13:34.446Z,86.57
2022-11-22T01:16:08.280Z,88.07
2022-11-22T01:18:38.139Z,91.77
2022-11-22T01:21:07.884Z,88.28
2022-11-22T01:23:37.420Z,87.68
2022-11-22T01:26:09.265Z,88.83
2022-11-22T01:28:39.125Z,90.15
2022-11-22T01:31:10.359Z,85.60
2022-11-22T01:33:39.844Z,87.52
2022-11-22T01:36:09.761Z,87.70
2022-11-22T01:38:39.533Z,82.16
2022-11-22T01:41:09.094Z,84.81
2022-11-22T01:43:39.011Z,88.29
2022-11-22T01:46:11.830Z,87.90
2022-11-22T01:48:48.907Z,95.39
2022-11-22T01:51:22.942Z,92.39
2022-11-22T01:53:53.267Z,94.19
2022-11-22T01:56:23.096Z,99.44
2022-11-22T01:58:56.894Z,91.80
2022-11-22T02:01:29.864Z,96.16
2022-11-22T02:04:00.630Z,93.58
2022-11-22T02:06:37.954Z,91.96
2022-11-22T02:09:12.021Z,90.34
2022-11-22T02:11:45.320Z,93.73
2022-11-22T02:14:17.160Z,95.26
2022-11-22T02:16:50.613Z,92.06
2022-11-22T02:19:25.865Z,87.50
2022-11-22T02:22:00.544Z,88.08
2022-11-22T02:24:33.851Z,85.30
2022-11-22T02:27:05.417Z,91.41
2022-11-22T02:29:36.050Z,87.96
2022-11-22T02:32:05.598Z,85.35
2022-11-22T02:34:44.739Z,88.24
2022-11-22T02:37:17.829Z,84.94
2022-11-22T02:39:48.954Z,85.83
2022-11-22T02:42:20.304Z,81.38
2022-11-22T02:44:50.556Z,83.36
2022-11-22T02:47:20.710Z,82.03
2022-11-22T02:49:50.699Z,81.32
2022-11-22T02:52:21.216Z,81.76
2022-11-22T02:54:50.860Z,86.90
2022-11-22T02:57:23.246Z,82.13
2022-11-22T03:00:18.191Z,81.36
2022-11-22T03:02:47.910Z,87.51
2022-11-22T03:05:17.825Z,85.11
2022-11-22T03:07:47.690Z,84.64
2022-11-22T03:10:17.175Z,84.98
2022-11-22T03:12:48.915Z,86.34
2022-11-22T03:15:18.653Z,88.16
2022-11-22T03:17:48.379Z,82.47
2022-11-22T03:20:18.040Z,81.21
2022-11-22T03:22:48.090Z,83.08
2022-11-22T03:25:18.351Z,80.21
2022-11-22T03:27:49.570Z,82.80
2022-11-22T03:30:19.306Z,84.59
2022-11-22T03:32:49.040Z,81.53
2022-11-22T03:35:18.972Z,81.14
2022-11-22T03:37:48.558Z,81.49
2022-11-22T03:40:18.200Z,81.53
2022-11-22T03:42:49.278Z,80.93
2022-11-22T03:45:19.035Z,80.97
2022-11-22T03:47:48.206Z,79.78
2022-11-22T03:50:17.896Z,79.20
2022-11-22T03:52:47.630Z,79.59
2022-11-22T03:55:17.990Z,81.03
2022-11-22T03:57:49.680Z,81.21
2022-11-22T04:00:19.890Z,82.52
2022-11-22T04:02:50.255Z,88.07
2022-11-22T04:05:19.922Z,84.42
2022-11-22T04:07:55.952Z,94.13
2022-11-22T04:10:27.222Z,93.37
2022-11-22T04:13:01.631Z,93.73
2022-11-22T04:15:30.920Z,95.84
2022-11-22T04:18:01.196Z,91.47
2022-11-22T04:20:49.447Z,94.70
2022-11-22T04:23:21.565Z,91.46
2022-11-22T04:25:51.982Z,96.41
2022-11-22T04:28:35.322Z,90.34
2022-11-22T04:31:32.972Z,89.47
2022-11-22T04:34:03.038Z,94.57
2022-11-22T04:36:32.665Z,89.46
2022-11-22T04:39:02.212Z,86.37
2022-11-22T04:41:31.865Z,83.90
2022-11-22T04:44:20.685Z,88.19
2022-11-22T04:46:50.110Z,84.89
2022-11-22T04:49:20.276Z,84.60
2022-11-22T04:52:07.241Z,83.62
2022-11-22T04:54:37.000Z,87.63
2022-11-22T04:57:07.221Z,88.61
2022-11-22T04:59:39.260Z,82.85
2022-11-22T05:02:08.955Z,86.51
2022-11-22T05:04:38.581Z,86.98
2022-11-22T05:07:08.270Z,86.02
2022-11-22T05:09:38.000Z,83.24
2022-11-22T05:12:08.151Z,82.88
2022-11-22T05:14:39.276Z,83.70
2022-11-22T05:17:12.932Z,83.90
2022-11-22T05:19:47.893Z,83.05
2022-11-22T05:22:39.067Z,82.65
2022-11-22T05:25:08.053Z,82.96
2022-11-22T05:27:37.830Z,83.43
2022-11-22T05:30:10.345Z,82.94
2022-11-22T05:32:39.845Z,83.79
2022-11-22T05:35:09.902Z,81.87
2022-11-22T05:37:40.276Z,86.46
2022-11-22T05:40:12.463Z,85.33
2022-11-22T05:42:41.990Z,82.33
2022-11-22T05:45:14.665Z,83.29
2022-11-22T05:47:44.650Z,79.99
2022-11-22T05:50:15.397Z,84.99
2022-11-22T05:52:45.095Z,86.18
2022-11-22T05:55:15.126Z,82.70
2022-11-22T05:57:44.996Z,86.35
2022-11-22T06:00:18.938Z,92.19
2022-11-22T06:02:51.006Z,88.23
2022-11-22T06:05:22.721Z,87.73
2022-11-22T06:07:53.246Z,94.83
2022-11-22T06:10:25.150Z,93.23
2022-11-22T06:12:57.127Z,92.07
2022-11-22T06:15:31.087Z,96.93
2022-11-22T06:18:01.594Z,92.49
2022-11-22T06:20:31.546Z,94.71
2022-11-22T06:23:01.942Z,93.41
2022-11-22T06:25:34.063Z,87.51
2022-11-22T06:28:04.324Z,87.00
2022-11-22T06:30:36.278Z,87.83
2022-11-22T06:33:06.145Z,88.08
2022-11-22T06:35:36.526Z,88.52
2022-11-22T06:38:08.072Z,89.79
2022-11-22T06:40:38.553Z,86.01
2022-11-22T06:43:08.779Z,84.68
2022-11-22T06:45:40.606Z,83.31
2022-11-22T06:48:10.878Z,87.62
2022-11-22T06:50:41.035Z,85.02
2022-11-22T06:53:32.372Z,85.21
2022-11-22T06:56:03.547Z,84.22
2022-11-22T06:58:33.889Z,83.29
2022-11-22T07:01:06.729Z,82.17
2022-11-22T07:03:37.785Z,82.62
2022-11-22T07:06:09.852Z,82.08
2022-11-22T07:08:40.404Z,83.14
2022-11-22T07:11:11.788Z,87.38
2022-11-22T07:13:42.301Z,84.15
2022-11-22T07:16:16.105Z,89.21
2022-11-22T07:18:48.996Z,87.25
2022-11-22T07:21:21.420Z,91.99
2022-11-22T07:23:52.889Z,92.42
2022-11-22T07:26:24.224Z,94.58
2022-11-22T07:28:54.095Z,94.17
2022-11-22T07:31:26.637Z,91.37
2022-11-22T07:33:58.964Z,87.24
2022-11-22T07:36:30.591Z,89.38
2022-11-22T07:39:00.769Z,87.77
2022-11-22T07:41:30.781Z,89.44
2022-11-22T07:44:00.791Z,88.07
2022-11-22T07:46:33.447Z,94.64
2022-11-22T07:49:03.820Z,91.47
2022-11-22T07:51:34.395Z,89.94
2022-11-22T07:54:05.051Z,90.03
2022-11-22T07:56:38.530Z,88.52
2022-11-22T07:59:08.384Z,90.12
2022-11-22T08:01:40.884Z,91.27
2022-11-22T08:04:11.512Z,90.37
2022-11-22T08:06:41.588Z,88.71
2022-11-22T08:09:13.206Z,89.25
2022-11-22T08:11:43.921Z,88.88
2022-11-22T08:14:14.110Z,92.82
2022-11-22T08:16:45.383Z,92.02
2022-11-22T08:19:17.760Z,87.91
2022-11-22T08:21:48.137Z,85.44
2022-11-22T08:24:18.535Z,96.78
2022-11-22T08:26:50.485Z,95.49
2022-11-22T08:29:21.795Z,94.90
2022-11-22T08:31:53.479Z,94.83
2022-11-22T08:34:23.915Z,93.91
2022-11-22T08:36:54.825Z,90.10
2022-11-22T08:39:25.010Z,85.31
2022-11-22T08:41:55.135Z,86.83
2022-11-22T08:44:24.895Z,88.32
2022-11-22T08:46:58.041Z,92.26
2022-11-22T08:49:29.485Z,84.32
2022-11-22T08:51:59.680Z,87.65
2022-11-22T08:54:33.570Z,85.21
2022-11-22T08:57:06.394Z,87.12
2022-11-22T08:59:36.448Z,85.22
2022-11-22T09:02:07.961Z,83.29
2022-11-22T09:04:38.200Z,83.13
2022-11-22T09:09:58.660Z,80.17
2022-11-22T09:12:29.349Z,84.72
2022-11-22T09:14:59.197Z,83.60
2022-11-22T09:17:30.316Z,86.41
2022-11-22T09:19:59.970Z,85.21
2022-11-22T09:22:29.976Z,84.22
2022-11-22T09:24:59.800Z,83.81
2022-11-22T09:27:29.297Z,85.62
2022-11-22T09:29:59.045Z,81.78
2022-11-22T09:32:33.664Z,82.22
2022-11-22T09:35:03.875Z,82.00
2022-11-22T09:37:34.186Z,85.04
2022-11-22T09:40:04.250Z,85.85
2022-11-22T09:42:56.498Z,84.26
2022-11-22T09:45:50.948Z,83.01
2022-11-22T09:48:38.469Z,81.92
2022-11-22T09:51:10.821Z,83.47
2022-11-22T09:53:44.692Z,81.64
2022-11-22T09:56:17.167Z,81.66
2022-11-22T09:58:52.343Z,81.57
2022-11-22T10:01:24.605Z,83.57
2022-11-22T10:03:59.571Z,80.87
2022-11-22T10:06:32.955Z,79.37
2022-11-22T10:09:11.514Z,81.03
2022-11-22T10:11:44.629Z,83.52
2022-11-22T10:14:24.402Z,81.65
2022-11-22T10:16:57.089Z,81.39
2022-11-22T10:19:36.009Z,85.18
2022-11-22T10:22:13.219Z,86.66
2022-11-22T10:24:43.214Z,85.81
2022-11-22T10:27:15.417Z,81.40
2022-11-22T10:29:52.314Z,80.04
2022-11-22T10:32:26.668Z,84.04
2022-11-22T10:35:17.370Z,83.39
2022-11-22T10:37:55.744Z,81.33
2022-11-22T10:40:29.605Z,80.58
2022-11-22T10:43:17.947Z,80.16
2022-11-22T10:45:50.681Z,87.32
2022-11-22T10:48:29.842Z,83.95
2022-11-22T10:51:09.039Z,82.19
2022-11-22T10:53:58.874Z,82.02
2022-11-22T10:56:35.855Z,84.81
2022-11-22T10:59:35.738Z,85.40
2022-11-22T11:02:16.860Z,85.07
2022-11-22T11:04:47.145Z,84.28
2022-11-22T11:07:23.277Z,81.61
2022-11-22T11:10:13.049Z,83.80
2022-11-22T11:12:48.176Z,79.79
2022-11-22T11:15:22.594Z,81.62
2022-11-22T11:17:56.615Z,81.80
2022-11-22T11:20:29.180Z,79.69
2022-11-22T11:23:16.761Z,78.47
2022-11-22T11:25:48.348Z,81.80
2022-11-22T11:28:22.094Z,80.16
2022-11-22T11:30:54.331Z,81.20
2022-11-22T11:33:28.857Z,82.69
2022-11-22T11:36:08.252Z,80.88
2022-11-22T11:38:55.596Z,79.06
2022-11-22T11:41:29.584Z,81.12
2022-11-22T11:44:00.855Z,77.83
2022-11-22T11:46:45.407Z,78.30
2022-11-22T11:49:17.638Z,79.16
2022-11-22T11:51:48.656Z,79.41
2022-11-22T11:54:21.955Z,79.22
2022-11-22T11:56:53.656Z,79.78
2022-11-22T11:59:24.954Z,77.52
2022-11-22T12:02:03.374Z,77.72
2022-11-22T12:04:36.659Z,80.04
2022-11-22T12:07:18.216Z,81.81
2022-11-22T12:09:51.274Z,81.07
2022-11-22T12:12:33.520Z,80.55
2022-11-22T12:15:12.106Z,81.14
2022-11-22T12:17:51.355Z,79.30
2022-11-22T12:20:26.702Z,78.81
2022-11-22T12:23:07.566Z,78.90
2022-11-22T12:25:40.754Z,83.32
2022-11-22T12:28:20.127Z,83.68
2022-11-22T12:30:54.096Z,84.08
2022-11-22T12:33:29.304Z,81.15
2022-11-22T12:35:59.566Z,81.74
2022-11-22T12:38:32.994Z,83.00
2022-11-22T12:41:06.408Z,83.59
2022-11-22T12:43:41.026Z,86.96
2022-11-22T12:46:13.846Z,86.73
2022-11-22T12:48:49.177Z,89.89
2022-11-22T12:51:25.896Z,89.63
2022-11-22T12:53:59.810Z,90.50
2022-11-22T12:56:34.147Z,91.28
2022-11-22T12:59:08.330Z,86.84
2022-11-22T13:01:44.927Z,88.37
2022-11-22T13:04:20.090Z,86.76
2022-11-22T13:06:57.971Z,86.10
2022-11-22T13:09:32.212Z,82.71
2022-11-22T13:12:09.882Z,86.17
2022-11-22T13:14:43.687Z,84.26
2022-11-22T13:17:14.719Z,87.25
2022-11-22T13:19:49.370Z,89.30
2022-11-22T13:22:23.349Z,85.22
2022-11-22T13:25:04.271Z,86.07
2022-11-22T13:27:37.565Z,87.51
2022-11-22T13:30:17.845Z,90.74
2022-11-22T13:32:51.276Z,89.54
2022-11-22T13:35:28.120Z,87.18
2022-11-22T13:37:59.932Z,90.02
2022-11-22T13:40:31.711Z,89.27
2022-11-22T13:43:35.170Z,91.79
2022-11-22T13:46:05.600Z,87.02
2022-11-22T13:49:13.206Z,87.93
2022-11-22T13:51:55.342Z,88.69
2022-11-22T13:55:15.289Z,85.97
2022-11-22T13:57:45.527Z,88.78
2022-11-22T14:00:50.247Z,87.50
2022-11-22T14:03:39.483Z,88.42
2022-11-22T14:06:32.812Z,89.21
2022-11-22T14:09:28.923Z,87.06
2022-11-22T14:12:28.641Z,87.92
2022-11-22T14:15:20.926Z,90.37
2022-11-22T14:18:05.562Z,90.37
2022-11-22T14:20:45.246Z,89.13
2022-11-22T14:23:23.326Z,92.26
2022-11-22T14:26:04.890Z,90.93
2022-11-22T14:28:57.700Z,91.14
2022-11-22T14:31:30.371Z,93.59
2022-11-22T14:34:23.351Z,89.71
2022-11-22T14:37:29.855Z,87.03
2022-11-22T14:40:05.813Z,90.13
2022-11-22T14:42:50.360Z,91.87
2022-11-22T14:45:25.926Z,92.78
2022-11-22T14:48:05.841Z,92.50
2022-11-22T14:50:45.684Z,92.46
2022-11-22T14:53:23.148Z,91.38
2022-11-22T14:55:56.298Z,91.75
2022-11-22T14:58:28.372Z,90.72
2022-11-22T15:01:26.582Z,90.30
2022-11-22T15:09:21.467Z,92.26
2022-11-22T15:09:22.564Z,90.51
2022-11-22T15:11:13.490Z,90.88
2022-11-22T15:14:14.522Z,87.67
2022-11-22T15:57:27.687Z,92.95
2022-11-22T16:00:01.339Z,94.69
2022-11-22T16:02:33.301Z,94.39
2022-11-22T16:06:08.155Z,99.07
2022-11-22T16:07:58.378Z,100.00
2022-11-22T16:10:38.253Z,97.20
2022-11-22T16:13:15.502Z,93.08
2022-11-22T16:15:50.346Z,98.54
2022-11-22T16:18:26.473Z,96.10
2022-11-22T16:21:07.461Z,96.07
2022-11-22T16:23:38.985Z,93.88
2022-11-22T16:26:22.068Z,98.90
2022-11-22T16:28:53.470Z,97.01
2022-11-22T16:31:30.350Z,99.22
2022-11-22T16:34:00.806Z,98.02
2022-11-22T16:36:32.266Z,97.76
2022-11-22T16:39:02.842Z,98.03
2022-11-22T16:41:33.715Z,98.15
2022-11-22T16:44:07.795Z,98.26
2022-11-22T16:46:39.476Z,100.00
2022-11-22T16:49:19.008Z,94.94
2022-11-22T16:51:49.901Z,97.91
2022-11-22T16:54:21.847Z,100.00
2022-11-22T16:56:53.067Z,100.00
2022-11-22T16:59:23.544Z,100.00
2022-11-22T17:01:56.101Z,100.00
2022-11-22T17:04:28.100Z,98.36
2022-11-22T17:07:00.006Z,96.24
2022-11-22T17:09:31.519Z,97.98
2022-11-22T17:12:05.254Z,98.10
2022-11-22T17:14:35.200Z,98.74
2022-11-22T17:17:06.799Z,98.18
2022-11-22T17:19:52.746Z,99.26
2022-11-22T17:22:29.160Z,97.38
2022-11-22T17:24:59.140Z,97.43
2022-11-22T17:27:29.994Z,100.00
2022-11-22T17:30:00.147Z,97.80
2022-11-22T17:32:32.400Z,100.00
2022-11-22T17:35:04.183Z,98.56
2022-11-22T17:37:34.244Z,99.59
2022-11-22T17:40:09.898Z,100.00
2022-11-22T17:42:41.520Z,99.49
2022-11-22T17:45:12.065Z,98.08
2022-11-22T17:47:44.579Z,100.00
2022-11-22T17:50:16.834Z,98.24
2022-11-22T17:52:46.929Z,99.10
2022-11-22T17:55:18.414Z,98.38
2022-11-22T17:57:51.673Z,100.00
2022-11-22T18:00:30.001Z,100.00
2022-11-22T18:03:07.883Z,98.01
2022-11-22T18:05:38.912Z,100.00
2022-11-22T18:08:09.280Z,94.64
2022-11-22T18:10:41.116Z,95.29
2022-11-22T18:13:21.300Z,97.50
2022-11-22T18:15:57.356Z,96.23
2022-11-22T18:18:55.629Z,95.17
2022-11-22T18:21:26.446Z,96.36
2022-11-22T18:23:57.725Z,99.64
2022-11-22T18:26:43.797Z,96.70
2022-11-22T18:32:05.075Z,94.20
2022-11-22T18:34:36.584Z,94.07
2022-11-22T18:37:06.640Z,93.54
2022-11-22T18:39:38.978Z,93.08
2022-11-22T18:42:11.841Z,94.50
2022-11-22T18:44:42.103Z,95.73
2022-11-22T18:47:13.971Z,94.95
2022-11-22T18:49:49.707Z,98.56
2022-11-22T18:52:23.345Z,97.29
2022-11-22T18:54:55.317Z,94.34
2022-11-22T18:57:25.630Z,93.62
2022-11-22T18:59:56.369Z,95.75
2022-11-22T19:02:27.904Z,91.91
2022-11-22T19:04:59.390Z,100.00
2022-11-22T19:07:29.215Z,97.11
2022-11-22T19:10:00.385Z,100.00
2022-11-22T19:12:31.184Z,100.00
2022-11-22T19:15:01.525Z,97.15
2022-11-22T19:17:31.046Z,95.48
2022-11-22T19:20:03.161Z,94.51
2022-11-22T19:22:36.120Z,94.91
2022-11-22T19:25:07.441Z,96.64
2022-11-22T19:27:37.825Z,94.60
2022-11-22T19:30:09.175Z,96.17
2022-11-22T19:32:40.059Z,96.25
2022-11-22T19:35:12.291Z,96.97
2022-11-22T19:37:42.281Z,95.85
2022-11-22T19:40:13.085Z,94.26
2022-11-22T19:42:42.646Z,97.87
2022-11-22T19:45:13.126Z,95.93
2022-11-22T19:47:43.220Z,95.13
2022-11-22T19:50:14.447Z,95.68
2022-11-22T19:52:46.834Z,95.92
2022-11-22T19:55:17.585Z,98.63
2022-11-22T19:57:48.345Z,95.75
2022-11-22T20:00:19.240Z,97.42
2022-11-22T20:02:48.766Z,95.83
2022-11-22T20:05:21.896Z,93.47
2022-11-22T20:07:52.205Z,92.00
2022-11-22T20:10:22.013Z,93.76
2022-11-22T20:12:51.845Z,95.11
2022-11-22T20:15:21.635Z,96.09
2022-11-22T20:17:51.826Z,99.85
2022-11-22T20:20:23.104Z,97.51
2022-11-22T20:22:54.207Z,97.02
2022-11-22T20:25:24.602Z,97.34
2022-11-22T20:27:57.267Z,99.31
2022-11-22T20:30:27.153Z,100.00
2022-11-22T20:32:57.421Z,100.00
2022-11-22T20:35:28.830Z,94.94
2022-11-22T20:37:58.155Z,99.13
2022-11-22T20:40:27.995Z,100.00
2022-11-22T20:43:02.555Z,97.27
2022-11-22T20:45:36.789Z,98.39
2022-11-22T20:48:09.672Z,95.90
2022-11-22T20:50:44.847Z,98.96
2022-11-22T20:53:15.871Z,97.64
2022-11-22T20:55:47.667Z,97.89
2022-11-22T20:58:19.035Z,93.41
2022-11-22T21:00:49.104Z,96.40
2022-11-22T21:03:19.711Z,96.18
2022-11-22T21:05:53.577Z,96.12
2022-11-22T21:08:23.912Z,94.29
2022-11-22T21:10:54.016Z,95.40
2022-11-22T21:13:23.631Z,94.80
2022-11-22T21:15:53.651Z,94.07
2022-11-22T21:18:25.842Z,93.84
2022-11-22T21:21:05.422Z,92.60
2022-11-22T21:23:35.501Z,95.63
2022-11-22T21:26:08.076Z,94.80
2022-11-22T21:28:38.920Z,96.25
2022-11-22T21:31:09.981Z,98.41
2022-11-22T21:33:40.801Z,100.00
2022-11-22T21:36:13.022Z,100.00
2022-11-22T21:38:43.497Z,94.63
2022-11-22T21:44:06.901Z,96.65
2022-11-22T21:46:37.221Z,96.19
2022-11-22T21:49:07.150Z,100.00
2022-11-22T21:51:38.453Z,93.84
2022-11-22T21:54:08.669Z,99.81
2022-11-22T21:56:39.041Z,99.79
2022-11-22T21:59:10.500Z,94.94
2022-11-22T22:01:40.480Z,98.01
2022-11-22T22:04:10.530Z,95.19
2022-11-22T22:06:46.059Z,98.84
2022-11-22T22:09:16.295Z,96.33
2022-11-22T22:11:48.155Z,94.51
2022-11-22T22:14:17.920Z,94.57
2022-11-22T22:16:48.110Z,97.79
2022-11-22T22:19:18.200Z,97.51
2022-11-22T22:21:50.222Z,96.60
2022-11-22T22:24:19.875Z,97.41
2022-11-22T22:26:52.086Z,97.17
2022-11-22T22:29:22.836Z,95.26
2022-11-22T22:31:52.492Z,99.00
2022-11-22T22:34:22.328Z,97.20
2022-11-22T22:36:53.726Z,95.78
2022-11-22T22:39:23.246Z,95.51
2022-11-22T22:41:52.855Z,96.37
2022-11-22T22:44:22.580Z,96.55
2022-11-22T22:46:52.374Z,96.68
2022-11-22T22:49:24.450Z,96.60
2022-11-22T22:51:56.733Z,97.64
2022-11-22T22:54:27.935Z,100.00
2022-11-22T22:56:58.041Z,97.92
2022-11-22T22:59:29.669Z,96.14
2022-11-22T23:01:59.716Z,96.50
2022-11-22T23:04:30.007Z,96.24
2022-11-22T23:07:01.225Z,95.90
2022-11-22T23:09:31.053Z,96.52
2022-11-22T23:12:13.253Z,95.09
2022-11-22T23:14:43.515Z,94.30
2022-11-22T23:17:13.626Z,97.34
2022-11-22T23:19:43.586Z,94.61
2022-11-22T23:22:15.123Z,96.34
2022-11-22T23:24:44.971Z,93.35
2022-11-22T23:27:14.671Z,94.50
2022-11-22T23:29:44.405Z,95.55
2022-11-22T23:32:15.731Z,94.34
2022-11-22T23:34:46.166Z,92.35
2022-11-22T23:37:17.788Z,95.11
2022-11-22T23:39:47.717Z,95.80
2022-11-22T23:42:39.473Z,95.28
2022-11-22T23:45:10.926Z,93.32
2022-11-22T23:47:40.629Z,95.93
2022-11-22T23:50:11.199Z,93.40
2022-11-22T23:52:42.197Z,97.34
2022-11-22T23:55:12.321Z,94.69
2022-11-22T23:57:42.684Z,95.08
